createdAt,value
2017-04-14T00:00:01.029Z,88.81
2017-04-14T00:01:12.051Z,88.91
2017-04-14T00:02:23.071Z,89.86
2017-04-14T00:03:34.108Z,87.96
2017-04-14T00:04:45.545Z,89
2017-04-14T00:05:56.623Z,90.81
2017-04-14T00:07:07.641Z,90.33
2017-04-14T00:08:18.669Z,89.58
2017-04-14T00:09:29.698Z,90.52
2017-04-14T00:10:40.934Z,88.06
2017-04-14T00:11:51.964Z,89.67
2017-04-14T00:13:02.993Z,89.1
2017-04-14T00:14:14.023Z,88.24
2017-04-14T00:15:25.062Z,89.58
2017-04-14T00:16:36.135Z,89.58
2017-04-14T00:17:47.166Z,88.06
2017-04-14T00:18:58.197Z,86.82
2017-04-14T00:20:09.277Z,86.91
2017-04-14T00:21:20.307Z,86.82
2017-04-14T00:22:31.382Z,87.01
2017-04-14T00:23:42.428Z,89.1
2017-04-14T00:24:53.485Z,87.58
2017-04-14T00:26:04.523Z,87.68
2017-04-14T00:27:15.756Z,87.68
2017-04-14T00:28:26.795Z,87.3
2017-04-14T00:29:37.827Z,87.68
2017-04-14T00:30:48.859Z,87.96
2017-04-14T00:31:59.894Z,87.77
2017-04-14T00:33:10.917Z,88.81
2017-04-14T00:34:22.014Z,88.29
2017-04-14T00:35:33.040Z,88.06
2017-04-14T00:36:44.263Z,87.92
2017-04-14T00:37:55.303Z,87.73
2017-04-14T00:39:06.329Z,87.82
2017-04-14T00:40:17.358Z,88.1
2017-04-14T00:41:28.398Z,88.2
2017-04-14T00:42:39.446Z,88.2
2017-04-14T00:43:50.523Z,88.1
2017-04-14T00:45:01.959Z,88.1
2017-04-14T00:46:12.986Z,88.48
2017-04-14T00:47:24.023Z,88.68
2017-04-14T00:48:35.263Z,88.39
2017-04-14T00:49:46.294Z,88.96
2017-04-14T00:50:57.321Z,90.1
2017-04-14T00:52:08.344Z,90.19
2017-04-14T00:53:19.369Z,89.53
2017-04-14T00:54:30.465Z,89.62
2017-04-14T00:55:41.502Z,89.53
2017-04-14T00:56:52.524Z,90.29
2017-04-14T00:58:03.558Z,90.19
2017-04-14T00:59:14.582Z,89.53
2017-04-14T01:00:25.816Z,89.53
2017-04-14T01:01:37.032Z,90.29
2017-04-14T01:02:48.270Z,90.38
2017-04-14T01:03:59.300Z,90.48
2017-04-14T01:05:10.573Z,91.24
2017-04-14T01:06:21.797Z,91.52
2017-04-14T01:07:32.828Z,91.99
2017-04-14T01:08:43.860Z,93.13
2017-04-14T01:09:54.899Z,93.41
2017-04-14T01:11:06.130Z,92.94
2017-04-14T01:12:17.153Z,91.42
2017-04-14T01:13:28.187Z,91.24
2017-04-14T01:14:39.211Z,91.14
2017-04-14T01:15:50.248Z,90.19
2017-04-14T01:17:01.273Z,90
2017-04-14T01:18:12.501Z,89.53
2017-04-14T01:19:23.521Z,89.34
2017-04-14T01:20:34.757Z,89.43
2017-04-14T01:21:45.831Z,89.53
2017-04-14T01:22:56.860Z,90.19
2017-04-14T01:24:08.085Z,89.91
2017-04-14T01:25:19.115Z,90.29
2017-04-14T01:26:30.143Z,90
2017-04-14T01:27:41.371Z,90.67
2017-04-14T01:28:52.614Z,90.95
2017-04-14T01:30:03.632Z,90.48
2017-04-14T01:31:14.658Z,90.86
2017-04-14T01:32:25.731Z,91.52
2017-04-14T01:33:36.961Z,90.81
2017-04-14T01:34:47.991Z,90.81
2017-04-14T01:35:59.221Z,91.47
2017-04-14T01:37:10.256Z,92.04
2017-04-14T01:38:21.282Z,92.33
2017-04-14T01:39:32.317Z,91.19
2017-04-14T01:40:43.549Z,90.81
2017-04-14T01:41:54.586Z,90.81
2017-04-14T01:43:05.680Z,90.34
2017-04-14T01:44:16.709Z,90.62
2017-04-14T01:45:27.741Z,90.53
2017-04-14T01:46:38.766Z,90.72
2017-04-14T01:47:50.009Z,90.72
2017-04-14T01:49:01.295Z,90.81
2017-04-14T01:50:12.331Z,90.91
2017-04-14T01:51:23.366Z,91
2017-04-14T01:52:34.398Z,91.09
2017-04-14T01:53:45.626Z,91.19
2017-04-14T01:54:56.668Z,91.19
2017-04-14T01:56:07.702Z,91.09
2017-04-14T01:57:18.737Z,91.57
2017-04-14T01:58:29.766Z,91.57
2017-04-14T01:59:40.795Z,92.61
2017-04-14T02:00:52.279Z,92.99
2017-04-14T02:02:03.317Z,92.61
2017-04-14T02:03:14.347Z,92.52
2017-04-14T02:04:25.380Z,92.33
2017-04-14T02:05:36.405Z,93.18
2017-04-14T02:06:47.634Z,92.52
2017-04-14T02:07:58.679Z,92.8
2017-04-14T02:09:09.903Z,92.99
2017-04-14T02:10:20.980Z,92.71
2017-04-14T02:11:31.992Z,93.56
2017-04-14T02:12:43.023Z,92.9
2017-04-14T02:13:54.264Z,92.8
2017-04-14T02:15:05.296Z,92.33
2017-04-14T02:16:16.517Z,92.42
2017-04-14T02:17:27.535Z,92.71
2017-04-14T02:18:38.765Z,93.84
2017-04-14T02:19:49.806Z,94.51
2017-04-14T02:21:00.882Z,93.65
2017-04-14T02:22:11.918Z,94.79
2017-04-14T02:23:23.151Z,93.94
2017-04-14T02:24:34.370Z,93.65
2017-04-14T02:25:45.402Z,95.65
2017-04-14T02:26:56.643Z,94.51
2017-04-14T02:28:07.680Z,93.94
2017-04-14T02:29:18.752Z,96.5
2017-04-14T02:30:29.777Z,94.7
2017-04-14T02:31:40.845Z,94.04
2017-04-14T02:32:52.060Z,94.04
2017-04-14T02:34:03.294Z,93.56
2017-04-14T02:35:14.534Z,93.65
2017-04-14T02:36:25.557Z,94.7
2017-04-14T02:37:36.581Z,93.94
2017-04-14T02:38:47.613Z,93.75
2017-04-14T02:39:58.654Z,95.74
2017-04-14T02:41:09.689Z,94.13
2017-04-14T02:42:20.725Z,95.26
2017-04-14T02:43:31.799Z,94.42
2017-04-14T02:44:42.833Z,96.41
2017-04-14T02:45:54.076Z,95.55
2017-04-14T02:47:05.093Z,96.59
2017-04-14T02:48:16.122Z,96.12
2017-04-14T02:49:27.150Z,95.5
2017-04-14T02:50:38.370Z,94.51
2017-04-14T02:51:49.594Z,93.89
2017-04-14T02:53:00.681Z,94.37
2017-04-14T02:54:11.714Z,93.51
2017-04-14T02:55:22.937Z,94.08
2017-04-14T02:56:33.967Z,94.27
2017-04-14T02:57:45.190Z,94.37
2017-04-14T02:58:56.213Z,94.65
2017-04-14T03:00:07.240Z,98.54
2017-04-14T03:01:18.274Z,98.54
2017-04-14T03:02:29.297Z,96.64
2017-04-14T03:03:40.371Z,95.31
2017-04-14T03:04:51.403Z,95.03
2017-04-14T03:06:02.430Z,94.37
2017-04-14T03:07:13.442Z,94.84
2017-04-14T03:08:24.475Z,94.56
2017-04-14T03:09:35.506Z,94.93
2017-04-14T03:10:46.525Z,96.64
2017-04-14T03:11:57.559Z,95.6
2017-04-14T03:13:08.601Z,95.5
2017-04-14T03:14:19.644Z,95.31
2017-04-14T03:15:30.673Z,95.69
2017-04-14T03:16:41.700Z,95.5
2017-04-14T03:17:52.774Z,95.22
2017-04-14T03:19:04.008Z,94.93
2017-04-14T03:20:15.035Z,94.93
2017-04-14T03:21:26.063Z,95.12
2017-04-14T03:22:37.097Z,94.93
2017-04-14T03:23:48.135Z,95.12
2017-04-14T03:24:59.173Z,95.88
2017-04-14T03:26:10.259Z,95.98
2017-04-14T03:27:21.488Z,95.6
2017-04-14T03:28:32.714Z,95.41
2017-04-14T03:29:43.744Z,95.6
2017-04-14T03:30:54.776Z,99.1
2017-04-14T03:32:05.820Z,99.99
2017-04-14T03:33:17.054Z,98.44
2017-04-14T03:34:28.326Z,96.73
2017-04-14T03:35:39.543Z,96.36
2017-04-14T03:36:50.967Z,96.36
2017-04-14T03:38:01.993Z,97.97
2017-04-14T03:39:13.022Z,99.2
2017-04-14T03:40:24.100Z,98.96
2017-04-14T03:41:35.321Z,97.54
2017-04-14T03:42:46.340Z,96.69
2017-04-14T03:43:57.385Z,96.59
2017-04-14T03:45:08.421Z,96.12
2017-04-14T03:46:19.450Z,96.69
2017-04-14T03:47:30.472Z,95.93
2017-04-14T03:48:41.709Z,96.59
2017-04-14T03:49:52.736Z,96.97
2017-04-14T03:51:03.812Z,97.63
2017-04-14T03:52:14.832Z,99.99
2017-04-14T03:53:25.858Z,98.49
2017-04-14T03:54:36.940Z,96.97
2017-04-14T03:55:47.983Z,96.88
2017-04-14T03:56:59.010Z,96.59
2017-04-14T03:58:10.036Z,95.83
2017-04-14T03:59:21.062Z,95.93
2017-04-14T04:00:32.082Z,96.02
2017-04-14T04:01:43.155Z,95.93
2017-04-14T04:02:54.233Z,95.83
2017-04-14T04:04:05.251Z,96.31
2017-04-14T04:05:16.274Z,96.31
2017-04-14T04:06:27.300Z,97.06
2017-04-14T04:07:38.327Z,97.44
2017-04-14T04:08:49.407Z,96.97
2017-04-14T04:10:00.434Z,96.59
2017-04-14T04:11:11.451Z,96.88
2017-04-14T04:12:22.481Z,97.92
2017-04-14T04:13:33.507Z,96.88
2017-04-14T04:14:44.543Z,96.59
2017-04-14T04:15:55.561Z,96.4
2017-04-14T04:17:07.242Z,96.78
2017-04-14T04:18:18.522Z,96.69
2017-04-14T04:19:29.550Z,96.88
2017-04-14T04:20:40.577Z,97.54
2017-04-14T04:21:51.853Z,96.97
2017-04-14T04:23:02.867Z,97.25
2017-04-14T04:24:14.104Z,97.06
2017-04-14T04:25:25.123Z,97.35
2017-04-14T04:26:36.403Z,99.24
2017-04-14T04:27:47.837Z,99.9
2017-04-14T04:28:58.915Z,99.43
2017-04-14T04:30:09.948Z,99.05
2017-04-14T04:31:20.976Z,97.82
2017-04-14T04:32:31.998Z,96.97
2017-04-14T04:33:43.030Z,97.73
2017-04-14T04:34:54.300Z,97.63
2017-04-14T04:36:05.538Z,97.73
2017-04-14T04:37:16.763Z,97.63
2017-04-14T04:38:27.799Z,98.58
2017-04-14T04:39:39.028Z,98.68
2017-04-14T04:40:50.056Z,98.3
2017-04-14T04:42:01.087Z,98.49
2017-04-14T04:43:12.122Z,98.01
2017-04-14T04:44:23.157Z,97.73
2017-04-14T04:45:34.191Z,97.44
2017-04-14T04:46:45.225Z,98.39
2017-04-14T04:47:56.468Z,98.3
2017-04-14T04:49:07.493Z,98.11
2017-04-14T04:50:18.582Z,98.39
2017-04-14T04:51:29.652Z,99.05
2017-04-14T04:52:40.674Z,98.77
2017-04-14T04:53:51.692Z,98.96
2017-04-14T04:55:02.774Z,98.77
2017-04-14T04:56:14.007Z,98.49
2017-04-14T04:57:25.023Z,99.43
2017-04-14T04:58:36.264Z,98.01
2017-04-14T04:59:47.292Z,99.33
2017-04-14T05:00:58.330Z,99.15
2017-04-14T05:02:09.556Z,99.43
2017-04-14T05:03:20.788Z,99.62
2017-04-14T05:04:31.815Z,99.43
2017-04-14T05:05:43.243Z,99.9
2017-04-14T05:06:54.263Z,99.71
2017-04-14T05:08:05.292Z,99.62
2017-04-14T05:09:16.522Z,99.99
2017-04-14T05:10:27.600Z,99.99
2017-04-14T05:11:38.821Z,99.71
2017-04-14T05:12:49.848Z,98.49
2017-04-14T05:14:00.875Z,99.33
2017-04-14T05:15:12.121Z,99.81
2017-04-14T05:16:23.139Z,99.43
2017-04-14T05:17:34.167Z,99.99
2017-04-14T05:18:45.204Z,99.99
2017-04-14T05:19:56.238Z,99.99
2017-04-14T05:21:07.324Z,99.99
2017-04-14T05:22:18.959Z,99.99
2017-04-14T05:23:29.979Z,99.99
2017-04-14T05:24:41.000Z,99.99
2017-04-14T05:25:52.022Z,99.99
2017-04-14T05:27:03.046Z,99.99
2017-04-14T05:28:14.075Z,99.99
2017-04-14T05:29:25.314Z,99.99
2017-04-14T05:30:36.341Z,99.99
2017-04-14T05:31:47.362Z,99.99
2017-04-14T05:32:58.452Z,99.99
2017-04-14T05:34:09.480Z,99.99
2017-04-14T05:35:20.509Z,99.99
2017-04-14T05:36:31.525Z,99.99
2017-04-14T05:37:42.558Z,99.99
2017-04-14T05:38:53.586Z,99.99
2017-04-14T05:40:04.816Z,99.99
2017-04-14T05:41:15.843Z,99.99
2017-04-14T05:42:26.929Z,99.99
2017-04-14T05:43:37.954Z,99.99
2017-04-14T05:44:48.985Z,99.99
2017-04-14T05:46:00.017Z,99.99
2017-04-14T05:47:11.042Z,99.99
2017-04-14T05:48:22.276Z,99.99
2017-04-14T05:49:33.509Z,99.99
2017-04-14T05:50:44.560Z,99.99
2017-04-14T05:51:55.593Z,99.99
2017-04-14T05:53:06.676Z,99.99
2017-04-14T05:54:17.910Z,99.99
2017-04-14T05:55:28.942Z,99.99
2017-04-14T05:56:40.192Z,99.99
2017-04-14T05:57:51.429Z,99.99
2017-04-14T05:59:02.664Z,99.99
2017-04-14T06:00:13.700Z,99.99
2017-04-14T06:01:24.722Z,99.99
2017-04-14T06:02:35.761Z,99.99
2017-04-14T06:03:46.891Z,99.99
2017-04-14T06:04:57.921Z,99.99
2017-04-14T06:06:08.955Z,99.99
2017-04-14T06:07:20.184Z,99.99
2017-04-14T06:08:31.211Z,99.99
2017-04-14T06:09:42.301Z,99.99
2017-04-14T06:10:53.341Z,99.99
2017-04-14T06:12:04.376Z,99.99
2017-04-14T06:13:15.418Z,99.99
2017-04-14T06:14:26.440Z,99.99
2017-04-14T06:15:37.914Z,99.99
2017-04-14T06:16:48.937Z,99.99
2017-04-14T06:18:00.017Z,99.99
2017-04-14T06:19:11.058Z,99.99
2017-04-14T06:20:22.291Z,99.99
2017-04-14T06:21:33.317Z,99.99
2017-04-14T06:22:44.350Z,99.99
2017-04-14T06:23:55.385Z,99.99
2017-04-14T06:25:06.664Z,99.99
2017-04-14T06:26:17.686Z,99.99
2017-04-14T06:27:28.779Z,99.99
2017-04-14T06:28:39.810Z,99.99
2017-04-14T06:29:50.848Z,99.99
2017-04-14T06:31:01.880Z,99.99
2017-04-14T06:32:13.118Z,99.99
2017-04-14T06:33:24.161Z,99.99
2017-04-14T06:34:35.206Z,99.99
2017-04-14T06:35:46.297Z,99.99
2017-04-14T06:36:57.339Z,99.99
2017-04-14T06:38:08.570Z,99.99
2017-04-14T06:39:19.620Z,99.99
2017-04-14T06:40:30.645Z,99.99
2017-04-14T06:41:41.681Z,99.99
2017-04-14T06:42:52.712Z,99.99
2017-04-14T06:44:03.746Z,99.99
2017-04-14T06:45:14.787Z,99.99
2017-04-14T06:46:25.925Z,99.99
2017-04-14T06:47:36.977Z,99.99
2017-04-14T06:48:48.435Z,99.99
2017-04-14T06:49:59.686Z,99.99
2017-04-14T06:51:10.722Z,99.99
2017-04-14T06:52:21.749Z,99.99
2017-04-14T06:53:32.805Z,96.32
2017-04-14T06:54:43.854Z,97.13
2017-04-14T06:55:54.896Z,98.75
2017-04-14T06:57:06.143Z,95.89
2017-04-14T06:58:17.630Z,93.98
2017-04-14T06:59:28.671Z,92.08
2017-04-14T07:00:39.702Z,91.83
2017-04-14T07:01:50.744Z,89.45
2017-04-14T07:03:01.799Z,87.83
2017-04-14T07:04:12.835Z,89.02
2017-04-14T07:05:23.874Z,89.31
2017-04-14T07:06:34.908Z,87.68
2017-04-14T07:07:46.192Z,89.4
2017-04-14T07:08:57.240Z,89.59
2017-04-14T07:10:08.685Z,88.16
2017-04-14T07:11:19.729Z,84.92
2017-04-14T07:12:30.770Z,86.68
2017-04-14T07:13:42.018Z,86.87
2017-04-14T07:14:53.068Z,85.15
2017-04-14T07:16:04.114Z,86.43
2017-04-14T07:17:15.180Z,83.95
2017-04-14T07:18:27.044Z,84.05
2017-04-14T07:19:38.833Z,85.58
2017-04-14T07:20:49.883Z,85.53
2017-04-14T07:22:00.919Z,89.59
2017-04-14T07:23:11.979Z,92.03
2017-04-14T07:24:23.244Z,97.37
2017-04-14T07:25:34.287Z,95.12
2017-04-14T07:26:45.389Z,99.99
2017-04-14T07:27:56.424Z,99.99
2017-04-14T07:29:07.455Z,99.99
2017-04-14T07:30:18.498Z,99.99
2017-04-14T07:31:29.736Z,99.99
2017-04-14T07:32:40.777Z,99.99
2017-04-14T07:33:52.021Z,99.99
2017-04-14T07:35:04.120Z,99.99
2017-04-14T07:36:15.157Z,99.99
2017-04-14T07:37:26.197Z,99.99
2017-04-14T07:38:38.888Z,99.99
2017-04-14T07:39:53.513Z,99.99
2017-04-14T07:41:04.541Z,99.99
2017-04-14T07:42:15.570Z,99.99
2017-04-14T07:43:26.607Z,99.99
2017-04-14T07:44:37.858Z,99.99
2017-04-14T07:45:48.890Z,99.99
2017-04-14T07:46:59.923Z,99.99
2017-04-14T07:48:10.957Z,99.99
2017-04-14T07:49:22.008Z,99.99
2017-04-14T07:50:33.077Z,99.99
2017-04-14T07:51:44.311Z,99.99
2017-04-14T07:52:55.346Z,99.99
2017-04-14T07:54:06.580Z,99.99
2017-04-14T07:55:17.614Z,99.99
2017-04-14T07:56:29.282Z,99.99
2017-04-14T07:57:41.196Z,99.99
2017-04-14T07:58:52.437Z,99.99
2017-04-14T08:00:03.461Z,99.99
2017-04-14T08:01:14.752Z,99.99
2017-04-14T08:02:25.781Z,99.99
2017-04-14T08:03:36.807Z,99.99
2017-04-14T08:04:47.847Z,99.99
2017-04-14T08:05:58.880Z,99.99
2017-04-14T08:07:10.163Z,99.99
2017-04-14T08:08:22.719Z,99.99
2017-04-14T08:09:34.854Z,99.99
2017-04-14T08:10:46.084Z,99.99
2017-04-14T08:11:57.121Z,99.99
2017-04-14T08:13:08.351Z,99.99
2017-04-14T08:14:19.442Z,99.99
2017-04-14T08:15:30.676Z,99.99
2017-04-14T08:16:41.702Z,99.99
2017-04-14T08:17:52.827Z,99.99
2017-04-14T08:19:04.053Z,99.99
2017-04-14T08:20:15.083Z,99.99
2017-04-14T08:21:26.119Z,99.99
2017-04-14T08:22:37.163Z,99.99
2017-04-14T08:23:48.190Z,99.99
2017-04-14T08:24:59.556Z,99.99
2017-04-14T08:26:10.580Z,99.99
2017-04-14T08:27:21.610Z,99.99
2017-04-14T08:28:32.891Z,99.99
2017-04-14T08:29:45.478Z,99.99
2017-04-14T08:30:56.511Z,99.99
2017-04-14T08:32:07.539Z,99.99
2017-04-14T08:33:18.565Z,99.99
2017-04-14T08:34:29.592Z,99.99
2017-04-14T08:35:40.891Z,99.99
2017-04-14T08:36:52.183Z,99.99
2017-04-14T08:38:03.412Z,99.99
2017-04-14T08:39:15.504Z,99.99
2017-04-14T08:40:26.537Z,99.99
2017-04-14T08:41:37.566Z,99.99
2017-04-14T08:42:48.606Z,99.99
2017-04-14T08:44:01.390Z,99.99
2017-04-14T08:45:13.213Z,99.99
2017-04-14T08:46:24.278Z,99.99
2017-04-14T08:47:36.837Z,99.99
2017-04-14T08:48:48.123Z,99.99
2017-04-14T08:49:59.142Z,99.99
2017-04-14T08:51:10.419Z,99.99
2017-04-14T08:52:21.660Z,99.99
2017-04-14T08:53:33.118Z,99.99
2017-04-14T08:54:44.151Z,99.99
2017-04-14T08:55:55.673Z,99.99
2017-04-14T08:57:06.882Z,99.99
2017-04-14T08:58:18.822Z,99.99
2017-04-14T08:59:30.771Z,99.99
2017-04-14T09:00:41.857Z,99.99
2017-04-14T09:01:52.892Z,99.99
2017-04-14T09:03:03.926Z,99.99
2017-04-14T09:04:14.957Z,99.99
2017-04-14T09:05:25.993Z,99.99
2017-04-14T09:06:37.024Z,99.99
2017-04-14T09:07:48.093Z,99.99
2017-04-14T09:08:59.323Z,99.99
2017-04-14T09:10:10.360Z,99.99
2017-04-14T09:11:21.440Z,99.99
2017-04-14T09:12:32.678Z,99.99
2017-04-14T09:13:43.734Z,99.99
2017-04-14T09:14:54.787Z,99.99
2017-04-14T09:16:06.033Z,99.99
2017-04-14T09:17:17.072Z,99.99
2017-04-14T09:18:28.100Z,99.99
2017-04-14T09:19:39.127Z,99.99
2017-04-14T09:20:50.671Z,99.99
2017-04-14T09:22:01.955Z,99.99
2017-04-14T09:23:12.987Z,99.99
2017-04-14T09:24:24.736Z,99.99
2017-04-14T09:25:37.139Z,99.99
2017-04-14T09:26:48.162Z,99.99
2017-04-14T09:27:59.186Z,99.99
2017-04-14T09:29:10.209Z,99.99
2017-04-14T09:30:21.243Z,99.99
2017-04-14T09:31:32.267Z,99.99
2017-04-14T09:32:43.298Z,99.99
2017-04-14T09:33:54.383Z,99.99
2017-04-14T09:35:05.607Z,99.99
2017-04-14T09:36:16.645Z,99.99
2017-04-14T09:37:27.681Z,99.99
2017-04-14T09:38:39.052Z,99.99
2017-04-14T09:39:50.082Z,99.99
2017-04-14T09:41:02.128Z,99.99
2017-04-14T09:42:13.360Z,99.99
2017-04-14T09:43:24.437Z,99.99
2017-04-14T09:44:35.676Z,99.99
2017-04-14T09:45:46.693Z,99.99
2017-04-14T09:46:57.725Z,99.99
2017-04-14T09:48:08.752Z,99.99
2017-04-14T09:49:20.443Z,99.99
2017-04-14T09:50:32.066Z,99.99
2017-04-14T09:51:43.285Z,99.99
2017-04-14T09:52:54.314Z,99.99
2017-04-14T09:54:05.392Z,99.99
2017-04-14T09:55:16.422Z,99.99
2017-04-14T09:56:27.445Z,99.99
2017-04-14T09:57:38.475Z,99.99
2017-04-14T09:58:49.523Z,99.99
2017-04-14T10:00:01.000Z,99.99
2017-04-14T10:01:12.044Z,99.99
2017-04-14T10:02:23.071Z,99.99
2017-04-14T10:03:34.104Z,99.99
2017-04-14T10:04:45.336Z,99.99
2017-04-14T10:05:56.733Z,99.99
2017-04-14T10:07:07.762Z,99.99
2017-04-14T10:08:18.812Z,99.99
2017-04-14T10:09:29.918Z,99.99
2017-04-14T10:10:42.562Z,99.99
2017-04-14T10:11:53.852Z,99.99
2017-04-14T10:13:04.879Z,99.99
2017-04-14T10:14:15.911Z,99.99
2017-04-14T10:15:26.947Z,99.99
2017-04-14T10:16:37.980Z,99.99
2017-04-14T10:17:49.021Z,99.99
2017-04-14T10:19:00.061Z,99.99
2017-04-14T10:20:11.292Z,99.99
2017-04-14T10:21:22.384Z,99.99
2017-04-14T10:22:33.418Z,99.99
2017-04-14T10:23:44.460Z,99.99
2017-04-14T10:24:55.489Z,99.99
2017-04-14T10:26:06.534Z,99.99
2017-04-14T10:27:17.560Z,99.99
2017-04-14T10:28:28.793Z,99.99
2017-04-14T10:29:39.826Z,99.99
2017-04-14T10:30:50.849Z,99.99
2017-04-14T10:32:02.134Z,99.99
2017-04-14T10:33:13.174Z,99.99
2017-04-14T10:34:24.217Z,99.99
2017-04-14T10:35:35.252Z,99.99
2017-04-14T10:36:46.271Z,99.99
2017-04-14T10:37:57.299Z,99.99
2017-04-14T10:39:08.338Z,99.99
2017-04-14T10:40:19.572Z,99.99
2017-04-14T10:41:30.613Z,99.99
2017-04-14T10:42:41.649Z,99.99
2017-04-14T10:43:52.689Z,99.99
2017-04-14T10:45:03.721Z,99.99
2017-04-14T10:46:14.958Z,99.99
2017-04-14T10:47:25.992Z,99.99
2017-04-14T10:48:37.038Z,99.99
2017-04-14T10:49:48.076Z,99.99
2017-04-14T10:50:59.121Z,99.99
2017-04-14T10:52:10.145Z,99.99
2017-04-14T10:53:21.178Z,99.99
2017-04-14T10:54:32.468Z,99.99
2017-04-14T10:55:43.700Z,99.99
2017-04-14T10:56:54.726Z,99.99
2017-04-14T10:58:05.962Z,99.99
2017-04-14T10:59:16.987Z,99.99
2017-04-14T11:00:28.229Z,99.99
2017-04-14T11:01:39.258Z,99.99
2017-04-14T11:02:50.340Z,99.99
2017-04-14T11:04:01.428Z,99.99
2017-04-14T11:05:12.473Z,99.99
2017-04-14T11:06:23.497Z,99.99
2017-04-14T11:07:34.533Z,99.99
2017-04-14T11:08:45.561Z,99.99
2017-04-14T11:09:56.603Z,99.99
2017-04-14T11:11:07.638Z,99.99
2017-04-14T11:12:19.067Z,99.99
2017-04-14T11:13:30.108Z,99.99
2017-04-14T11:14:41.588Z,99.99
2017-04-14T11:15:52.615Z,99.99
2017-04-14T11:17:03.638Z,99.99
2017-04-14T11:18:14.681Z,99.99
2017-04-14T11:19:25.717Z,99.99
2017-04-14T11:20:36.795Z,99.99
2017-04-14T11:21:47.837Z,99.99
2017-04-14T11:22:58.868Z,99.99
2017-04-14T11:24:09.958Z,99.99
2017-04-14T11:25:20.985Z,99.99
2017-04-14T11:26:32.010Z,99.99
2017-04-14T11:27:43.037Z,99.99
2017-04-14T11:28:54.073Z,99.99
2017-04-14T11:30:05.098Z,99.99
2017-04-14T11:31:16.129Z,99.99
2017-04-14T11:32:27.162Z,99.99
2017-04-14T11:33:38.397Z,99.99
2017-04-14T11:34:49.438Z,99.99
2017-04-14T11:36:00.473Z,99.99
2017-04-14T11:37:11.761Z,99.99
2017-04-14T11:38:22.796Z,99.99
2017-04-14T11:39:34.034Z,99.99
2017-04-14T11:40:45.071Z,99.99
2017-04-14T11:41:56.169Z,99.99
2017-04-14T11:43:07.201Z,99.99
2017-04-14T11:44:18.242Z,99.99
2017-04-14T11:45:29.271Z,99.99
2017-04-14T11:46:40.579Z,99.99
2017-04-14T11:47:51.614Z,99.99
2017-04-14T11:49:02.849Z,99.99
2017-04-14T11:50:13.887Z,99.99
2017-04-14T11:51:24.934Z,99.99
2017-04-14T11:52:35.960Z,99.99
2017-04-14T11:53:47.006Z,99.99
2017-04-14T11:54:58.039Z,99.99
2017-04-14T11:56:09.085Z,99.99
2017-04-14T11:57:20.370Z,99.99
2017-04-14T11:58:31.410Z,99.99
2017-04-14T11:59:42.649Z,99.99
2017-04-14T12:00:53.675Z,99.99
2017-04-14T12:02:04.707Z,99.99
2017-04-14T12:03:15.945Z,99.99
2017-04-14T12:04:26.983Z,99.99
2017-04-14T12:05:38.009Z,99.99
2017-04-14T12:06:49.025Z,99.99
2017-04-14T12:08:00.052Z,99.99
2017-04-14T12:09:11.095Z,99.99
2017-04-14T12:10:22.135Z,99.99
2017-04-14T12:11:33.174Z,99.99
2017-04-14T12:12:44.198Z,99.99
2017-04-14T12:13:55.440Z,99.99
2017-04-14T12:15:06.460Z,99.99
2017-04-14T12:16:17.489Z,99.99
2017-04-14T12:17:28.530Z,99.99
2017-04-14T12:18:39.775Z,99.99
2017-04-14T12:19:51.063Z,99.99
2017-04-14T12:21:02.091Z,99.99
2017-04-14T12:22:13.127Z,99.99
2017-04-14T12:23:24.152Z,99.99
2017-04-14T12:24:35.193Z,99.99
2017-04-14T12:25:46.221Z,99.99
2017-04-14T12:26:57.249Z,99.99
2017-04-14T12:28:08.281Z,99.99
2017-04-14T12:29:19.370Z,99.99
2017-04-14T12:30:30.410Z,99.99
2017-04-14T12:31:41.444Z,99.99
2017-04-14T12:32:52.476Z,99.99
2017-04-14T12:34:03.499Z,99.99
2017-04-14T12:35:14.760Z,99.99
2017-04-14T12:36:25.996Z,99.99
2017-04-14T12:37:37.032Z,99.99
2017-04-14T12:38:48.066Z,99.99
2017-04-14T12:39:59.152Z,99.99
2017-04-14T12:41:10.187Z,99.99
2017-04-14T12:42:21.220Z,99.99
2017-04-14T12:43:32.256Z,99.99
2017-04-14T12:44:43.490Z,99.99
2017-04-14T12:45:54.523Z,99.99
2017-04-14T12:47:05.555Z,99.99
2017-04-14T12:48:16.783Z,99.99
2017-04-14T12:49:27.820Z,99.99
2017-04-14T12:50:38.860Z,99.99
2017-04-14T12:51:49.898Z,99.99
2017-04-14T12:53:00.934Z,99.99
2017-04-14T12:54:11.972Z,99.99
2017-04-14T12:55:23.206Z,99.99
2017-04-14T12:56:34.449Z,99.99
2017-04-14T12:57:45.687Z,99.99
2017-04-14T12:58:56.932Z,99.99
2017-04-14T13:00:07.960Z,99.99
2017-04-14T13:01:19.456Z,99.99
2017-04-14T13:02:30.538Z,99.99
2017-04-14T13:03:41.572Z,99.99
2017-04-14T13:04:52.601Z,99.99
2017-04-14T13:06:03.633Z,99.99
2017-04-14T13:07:14.653Z,99.99
2017-04-14T13:08:25.685Z,99.99
2017-04-14T13:09:36.731Z,99.99
2017-04-14T13:10:47.750Z,99.99
2017-04-14T13:11:59.236Z,99.99
2017-04-14T13:13:10.290Z,99.99
2017-04-14T13:14:21.316Z,99.99
2017-04-14T13:15:32.350Z,99.99
2017-04-14T13:16:43.379Z,99.99
2017-04-14T13:17:54.406Z,99.99
2017-04-14T13:19:05.439Z,99.99
2017-04-14T13:20:16.480Z,99.99
2017-04-14T13:21:27.509Z,99.99
2017-04-14T13:22:38.796Z,99.99
2017-04-14T13:23:49.825Z,99.99
2017-04-14T13:25:01.077Z,99.99
2017-04-14T13:26:12.102Z,99.99
2017-04-14T13:27:23.150Z,99.99
2017-04-14T13:28:34.229Z,99.99
2017-04-14T13:29:45.258Z,99.99
2017-04-14T13:30:56.293Z,99.99
2017-04-14T13:32:07.329Z,99.99
2017-04-14T13:33:18.348Z,99.99
2017-04-14T13:34:29.387Z,99.99
2017-04-14T13:35:40.425Z,99.99
2017-04-14T13:36:51.453Z,99.99
2017-04-14T13:38:02.480Z,99.99
2017-04-14T13:39:13.519Z,99.99
2017-04-14T13:40:24.597Z,99.99
2017-04-14T13:41:35.850Z,99.99
2017-04-14T13:42:47.081Z,99.99
2017-04-14T13:43:58.114Z,99.99
2017-04-14T13:45:09.160Z,99.99
2017-04-14T13:46:20.248Z,99.99
2017-04-14T13:47:31.287Z,99.99
2017-04-14T13:48:42.318Z,99.99
2017-04-14T13:49:53.415Z,99.99
2017-04-14T13:51:04.449Z,99.99
2017-04-14T13:52:15.478Z,99.99
2017-04-14T13:53:26.705Z,99.99
2017-04-14T13:54:37.741Z,99.99
2017-04-14T13:55:48.770Z,99.99
2017-04-14T13:56:59.804Z,99.99
2017-04-14T13:58:10.831Z,99.99
2017-04-14T13:59:21.864Z,99.99
2017-04-14T14:00:32.896Z,99.99
2017-04-14T14:01:43.917Z,99.99
2017-04-14T14:02:54.944Z,99.99
2017-04-14T14:04:05.982Z,99.99
2017-04-14T14:05:17.280Z,99.99
2017-04-14T14:06:28.522Z,99.99
2017-04-14T14:07:39.550Z,99.99
2017-04-14T14:08:50.785Z,99.99
2017-04-14T14:10:01.825Z,99.99
2017-04-14T14:11:12.877Z,99.99
2017-04-14T14:12:23.910Z,99.99
2017-04-14T14:13:34.951Z,98.03
2017-04-14T14:14:45.983Z,98.8
2017-04-14T14:15:57.006Z,98.8
2017-04-14T14:17:08.041Z,99.99
2017-04-14T14:18:19.278Z,99.99
2017-04-14T14:19:30.306Z,99.85
2017-04-14T14:20:41.340Z,98.9
2017-04-14T14:21:52.624Z,99.27
2017-04-14T14:23:03.651Z,99.99
2017-04-14T14:24:14.684Z,99.99
2017-04-14T14:25:25.727Z,99.95
2017-04-14T14:26:36.747Z,98.7
2017-04-14T14:27:47.765Z,99.99
2017-04-14T14:28:58.800Z,99.99
2017-04-14T14:30:09.831Z,99.18
2017-04-14T14:31:20.864Z,98.51
2017-04-14T14:32:31.945Z,97.85
2017-04-14T14:33:43.184Z,97.46
2017-04-14T14:34:54.219Z,99.18
2017-04-14T14:36:05.250Z,98.42
2017-04-14T14:37:16.483Z,98.51
2017-04-14T14:38:27.532Z,97.56
2017-04-14T14:39:38.564Z,97.27
2017-04-14T14:40:49.594Z,97.66
2017-04-14T14:42:00.626Z,96.03
2017-04-14T14:43:11.916Z,95.84
2017-04-14T14:44:23.156Z,96.51
2017-04-14T14:45:34.183Z,95.46
2017-04-14T14:46:45.216Z,94.32
2017-04-14T14:47:56.263Z,93.36
2017-04-14T14:49:07.348Z,94.98
2017-04-14T14:50:18.378Z,93.93
2017-04-14T14:51:29.405Z,93.08
2017-04-14T14:52:40.485Z,92.5
2017-04-14T14:53:51.537Z,92.98
2017-04-14T14:55:02.585Z,93.93
2017-04-14T14:56:13.627Z,95.37
2017-04-14T14:57:24.664Z,93.36
2017-04-14T14:58:35.686Z,94.98
2017-04-14T14:59:46.714Z,94.6
2017-04-14T15:00:57.796Z,92.22
2017-04-14T15:02:08.832Z,93.36
2017-04-14T15:03:19.867Z,95.17
2017-04-14T15:04:30.901Z,94.22
2017-04-14T15:05:41.983Z,93.46
2017-04-14T15:06:53.062Z,93.17
2017-04-14T15:08:04.284Z,90.31
2017-04-14T15:09:15.314Z,91.36
2017-04-14T15:10:26.606Z,93.84
2017-04-14T15:11:37.632Z,95.27
2017-04-14T15:12:48.912Z,90.5
2017-04-14T15:13:59.947Z,94.51
2017-04-14T15:15:10.989Z,93.55
2017-04-14T15:16:22.021Z,93.55
2017-04-14T15:17:33.043Z,93.74